createdAt,value
2023-03-05T00:01:34.293Z,101155.22
2023-03-05T00:04:04.053Z,101163.81
2023-03-05T00:06:33.859Z,101162.94
2023-03-05T00:09:03.585Z,101157.69
2023-03-05T00:11:34.154Z,101162.91
2023-03-05T00:14:04.847Z,101164.59
2023-03-05T00:16:33.701Z,101157.69
2023-03-05T00:19:03.011Z,101161.16
2023-03-05T00:21:33.624Z,101159.41
2023-03-05T00:24:05.207Z,101157.69
2023-03-05T00:26:39.005Z,101164.59
2023-03-05T00:29:09.404Z,101161.16
2023-03-05T00:31:39.085Z,101154.19
2023-03-05T00:34:12.246Z,101147.25
2023-03-05T00:36:43.171Z,101145.53
2023-03-05T00:39:12.295Z,101149.88
2023-03-05T00:41:41.973Z,101147.25
2023-03-05T00:44:10.649Z,101144.63
2023-03-05T00:46:40.204Z,101143.75
2023-03-05T00:49:08.895Z,101133.34
2023-03-05T00:51:37.646Z,101131.63
2023-03-05T00:54:06.930Z,101130.75
2023-03-05T00:56:35.756Z,101128.16
2023-03-05T00:59:05.460Z,101129.03
2023-03-05T01:01:33.986Z,101127.31
2023-03-05T01:04:04.526Z,101123.84
2023-03-05T01:06:33.096Z,101117.78
2023-03-05T01:09:01.770Z,101117.78
2023-03-05T01:11:31.915Z,101116.91
2023-03-05T01:14:00.662Z,101126.44
2023-03-05T01:16:32.230Z,101116.91
2023-03-05T01:19:00.926Z,101110.84
2023-03-05T01:21:29.516Z,101112.56
2023-03-05T01:23:58.828Z,101110.81
2023-03-05T01:26:27.462Z,101098.69
2023-03-05T01:28:55.725Z,101102.13
2023-03-05T01:31:24.593Z,101100.41
2023-03-05T01:33:55.838Z,101092.56
2023-03-05T01:36:25.239Z,101091.72
2023-03-05T01:38:54.134Z,101093.47
2023-03-05T01:41:22.804Z,101090.84
2023-03-05T01:43:52.851Z,101089.13
2023-03-05T01:46:38.115Z,101087.38
2023-03-05T01:49:21.842Z,101080.47
2023-03-05T01:52:01.037Z,101084.81
2023-03-05T01:54:34.582Z,101096.06
2023-03-05T01:57:10.793Z,101086.53
2023-03-05T01:59:41.089Z,101086.56
2023-03-05T02:02:10.118Z,101088.31
2023-03-05T02:04:43.773Z,101092.66
2023-03-05T02:07:12.853Z,101082.25
2023-03-05T02:09:42.174Z,101077.97
2023-03-05T02:12:13.486Z,101076.22
2023-03-05T02:14:44.315Z,101076.22
2023-03-05T02:17:13.444Z,101065.84
2023-03-05T02:19:52.463Z,101064.97
2023-03-05T02:22:25.037Z,101069.28
2023-03-05T02:24:53.902Z,101069.28
2023-03-05T02:27:34.690Z,101070.16
2023-03-05T02:30:04.572Z,101065.81
2023-03-05T02:32:33.215Z,101064.06
2023-03-05T02:35:01.913Z,101062.34
2023-03-05T02:37:31.730Z,101060.59
2023-03-05T02:40:00.013Z,101053.66
2023-03-05T02:42:30.882Z,101055.41
2023-03-05T02:44:59.457Z,101051.94
2023-03-05T02:47:28.121Z,101051.94
2023-03-05T02:49:57.539Z,101047.63
2023-03-05T02:52:26.852Z,101043.28
2023-03-05T02:54:56.426Z,101039.81
2023-03-05T02:57:25.960Z,101039.81
2023-03-05T02:59:55.300Z,101038.94
2023-03-05T03:02:24.046Z,101032.91
2023-03-05T03:04:52.602Z,101031.16
2023-03-05T03:07:21.317Z,101029.41
2023-03-05T03:09:49.950Z,101029.41
2023-03-05T03:12:19.538Z,101025.06
2023-03-05T03:14:48.071Z,101016.44
2023-03-05T03:17:19.329Z,101013.84
2023-03-05T03:19:48.139Z,101016.47
2023-03-05T03:22:17.218Z,101008.69
2023-03-05T03:24:45.954Z,101015.63
2023-03-05T03:27:14.134Z,101004.38
2023-03-05T03:29:43.747Z,101006.09
2023-03-05T03:32:12.034Z,101002.63
2023-03-05T03:34:40.614Z,101001.78
2023-03-05T03:37:09.964Z,100995.72
2023-03-05T03:39:38.281Z,100993.13
2023-03-05T03:42:07.008Z,100985.34
2023-03-05T03:44:35.524Z,100987.09
2023-03-05T03:47:05.533Z,100981.03
2023-03-05T03:49:33.818Z,100982.75
2023-03-05T03:52:02.002Z,100982.75
2023-03-05T03:54:30.802Z,100982.75
2023-03-05T03:56:59.302Z,100979.31
2023-03-05T03:59:27.864Z,100983.63
2023-03-05T04:01:56.426Z,100977.56
2023-03-05T04:04:26.461Z,100977.56
2023-03-05T04:06:55.054Z,100965.44
2023-03-05T04:09:23.588Z,100973.25
2023-03-05T04:11:52.100Z,100979.31
2023-03-05T04:14:20.658Z,100970.66
2023-03-05T04:16:49.164Z,100974.97
2023-03-05T04:19:17.675Z,100970.66
2023-03-05T04:21:47.220Z,100973.25
2023-03-05T04:24:15.749Z,100972.38
2023-03-05T04:26:44.331Z,100976.72
2023-03-05T04:29:12.597Z,100974.09
2023-03-05T04:31:41.141Z,100970.63
2023-03-05T04:34:09.639Z,100972.34
2023-03-05T04:36:37.982Z,100976.69
2023-03-05T04:39:07.523Z,100972.34
2023-03-05T04:41:35.711Z,100970.63
2023-03-05T04:44:04.497Z,100968.91
2023-03-05T04:46:32.888Z,100962.81
2023-03-05T04:49:01.732Z,100961.06
2023-03-05T04:51:30.303Z,100966.28
2023-03-05T04:53:58.859Z,100965.38
2023-03-05T04:56:28.610Z,100955.84
2023-03-05T04:58:57.137Z,100961.88
2023-03-05T05:01:25.785Z,100954.06
2023-03-05T05:03:54.439Z,100957.53
2023-03-05T05:06:22.925Z,100949.72
2023-03-05T05:08:51.502Z,100958.38
2023-03-05T05:11:19.721Z,100953.16
2023-03-05T05:13:49.278Z,100948.00
2023-03-05T05:16:18.195Z,100959.28
2023-03-05T05:18:46.723Z,100949.75
2023-03-05T05:21:16.109Z,100952.34
2023-03-05T05:23:44.628Z,100949.75
2023-03-05T05:26:14.563Z,100954.97
2023-03-05T05:28:44.244Z,100957.59
2023-03-05T05:31:16.807Z,100954.13
2023-03-05T05:33:47.523Z,100955.88
2023-03-05T05:36:20.052Z,100955.91
2023-03-05T05:38:48.929Z,100950.69
2023-03-05T05:41:19.405Z,100949.84
2023-03-05T05:43:48.556Z,100941.19
2023-03-05T05:46:20.693Z,100942.94
2023-03-05T05:48:49.848Z,100942.09
2023-03-05T05:51:21.130Z,100938.63
2023-03-05T05:53:50.424Z,100936.91
2023-03-05T05:56:19.567Z,100937.78
2023-03-05T05:58:49.965Z,100933.44
2023-03-05T06:01:23.239Z,100930.84
2023-03-05T06:03:52.162Z,100930.84
2023-03-05T06:06:23.822Z,100932.59
2023-03-05T06:08:52.766Z,100930.84
2023-03-05T06:11:22.348Z,100929.13
2023-03-05T06:13:52.860Z,100930.00
2023-03-05T06:16:25.710Z,100930.00
2023-03-05T06:18:54.902Z,100931.72
2023-03-05T06:21:24.239Z,100928.25
2023-03-05T06:23:53.398Z,100925.63
2023-03-05T06:26:23.697Z,100927.41
2023-03-05T06:28:52.797Z,100932.59
2023-03-05T06:31:25.571Z,100934.31
2023-03-05T06:33:56.603Z,100930.84
2023-03-05T06:36:26.774Z,100932.59
2023-03-05T06:38:55.517Z,100937.78
2023-03-05T06:41:26.231Z,100936.91
2023-03-05T06:43:55.524Z,100931.72
2023-03-05T06:46:27.368Z,100930.84
2023-03-05T06:48:58.717Z,100931.75
2023-03-05T06:51:30.233Z,100943.00
2023-03-05T06:54:02.468Z,100939.53
2023-03-05T06:56:31.009Z,100941.25
2023-03-05T06:59:00.534Z,100941.28
2023-03-05T07:01:30.318Z,100939.53
2023-03-05T07:04:00.266Z,100927.44
2023-03-05T07:06:29.065Z,100925.72
2023-03-05T07:08:58.045Z,100921.38
2023-03-05T07:11:26.650Z,100926.59
2023-03-05T07:13:55.340Z,100925.75
2023-03-05T07:16:25.732Z,100925.75
2023-03-05T07:18:57.113Z,100926.59
2023-03-05T07:21:28.071Z,100918.84
2023-03-05T07:23:58.832Z,100919.72
2023-03-05T07:26:28.331Z,100924.91
2023-03-05T07:28:56.986Z,100921.44
2023-03-05T07:31:27.294Z,100920.63
2023-03-05T07:33:57.268Z,100924.94
2023-03-05T07:36:25.814Z,100917.16
2023-03-05T07:38:54.561Z,100914.56
2023-03-05T07:41:23.497Z,100913.75
2023-03-05T07:43:54.403Z,100912.88
2023-03-05T07:46:26.035Z,100917.19
2023-03-05T07:48:56.258Z,100921.56
2023-03-05T07:51:26.297Z,100918.94
2023-03-05T07:53:58.401Z,100920.69
2023-03-05T07:56:31.722Z,100921.56
2023-03-05T07:59:01.273Z,100917.25
2023-03-05T08:01:30.590Z,100918.09
2023-03-05T08:04:00.303Z,100915.50
2023-03-05T08:06:28.786Z,100912.03
2023-03-05T08:08:58.169Z,100912.88
2023-03-05T08:11:28.414Z,100915.50
2023-03-05T08:13:59.278Z,100916.38
2023-03-05T08:16:28.140Z,100912.03
2023-03-05T08:18:57.460Z,100908.53
2023-03-05T08:21:29.772Z,100907.69
2023-03-05T08:23:59.191Z,100903.34
2023-03-05T08:26:30.495Z,100907.69
2023-03-05T08:28:59.860Z,100903.31
2023-03-05T08:31:30.184Z,100901.59
2023-03-05T08:34:00.690Z,100899.84
2023-03-05T08:36:31.296Z,100899.84
2023-03-05T08:39:00.613Z,100890.28
2023-03-05T08:41:29.398Z,100892.88
2023-03-05T08:43:58.195Z,100896.34
2023-03-05T08:46:26.537Z,100896.31
2023-03-05T08:48:55.257Z,100893.69
2023-03-05T08:51:26.949Z,100898.88
2023-03-05T08:53:59.796Z,100885.84
2023-03-05T08:56:31.112Z,100889.31
2023-03-05T08:59:00.475Z,100883.19
2023-03-05T09:01:30.561Z,100892.75
2023-03-05T09:03:59.785Z,100889.28
2023-03-05T09:06:29.324Z,100891.00
2023-03-05T09:08:58.987Z,100886.66
2023-03-05T09:11:27.518Z,100895.31
2023-03-05T09:13:55.712Z,100890.06
2023-03-05T09:16:24.327Z,100892.69
2023-03-05T09:18:52.895Z,100885.72
2023-03-05T09:21:21.594Z,100885.69
2023-03-05T09:23:50.113Z,100883.94
2023-03-05T09:26:20.599Z,100887.44
2023-03-05T09:28:49.472Z,100875.25
2023-03-05T09:31:18.485Z,100873.47
2023-03-05T09:33:48.170Z,100877.78
2023-03-05T09:36:21.727Z,100871.66
2023-03-05T09:38:50.959Z,100866.41
2023-03-05T09:41:31.039Z,100873.34
2023-03-05T09:44:12.055Z,100869.78
2023-03-05T09:46:53.243Z,100859.34
2023-03-05T09:49:33.654Z,100854.06
2023-03-05T09:52:08.925Z,100854.00
2023-03-05T09:54:42.820Z,100849.63
2023-03-05T09:57:18.913Z,100843.50
2023-03-05T09:59:52.635Z,100833.06
2023-03-05T10:02:27.269Z,100824.31
2023-03-05T10:04:59.493Z,100826.91
2023-03-05T10:07:31.836Z,100829.53
2023-03-05T10:10:04.653Z,100829.53
2023-03-05T10:12:42.606Z,100827.78
2023-03-05T10:15:16.012Z,100819.97
2023-03-05T10:18:00.881Z,100826.00
2023-03-05T10:20:45.570Z,100815.50
2023-03-05T10:23:44.117Z,100816.34
2023-03-05T10:26:28.829Z,100818.91
2023-03-05T10:29:17.379Z,100810.16
2023-03-05T10:32:05.238Z,100807.50
2023-03-05T10:34:53.355Z,100795.28
2023-03-05T10:38:00.458Z,100794.34
2023-03-05T10:40:36.557Z,100796.06
2023-03-05T10:43:20.479Z,100795.16
2023-03-05T10:45:53.604Z,100791.63
2023-03-05T10:48:36.553Z,100790.72
2023-03-05T10:51:14.389Z,100790.72
2023-03-05T10:53:55.922Z,100782.84
2023-03-05T10:56:26.195Z,100783.72
2023-03-05T10:58:55.085Z,100780.25
2023-03-05T11:01:28.648Z,100775.88
2023-03-05T11:03:59.794Z,100773.31
2023-03-05T11:06:36.064Z,100775.06
2023-03-05T11:09:24.147Z,100775.06
2023-03-05T11:12:13.214Z,100769.84
2023-03-05T11:14:44.251Z,100766.25
2023-03-05T11:17:32.431Z,100762.78
2023-03-05T11:20:33.529Z,100755.81
2023-03-05T11:23:13.315Z,100754.00
2023-03-05T11:26:02.047Z,100754.03
2023-03-05T11:28:35.265Z,100747.09
2023-03-05T11:31:24.233Z,100752.41
2023-03-05T11:34:01.056Z,100755.97
2023-03-05T11:36:33.353Z,100752.50
2023-03-05T11:39:12.377Z,100748.19
2023-03-05T11:41:43.626Z,100745.63
2023-03-05T11:44:16.917Z,100750.94
2023-03-05T11:46:48.515Z,100751.00
2023-03-05T11:49:25.431Z,100753.63
2023-03-05T11:52:03.030Z,100740.63
2023-03-05T11:54:40.177Z,100737.16
2023-03-05T11:57:12.485Z,100731.06
2023-03-05T11:59:41.122Z,100729.31
2023-03-05T12:02:21.491Z,100725.00
2023-03-05T12:04:52.040Z,100723.28
2023-03-05T12:07:28.348Z,100718.06
2023-03-05T12:09:56.774Z,100712.00
2023-03-05T12:12:42.005Z,100718.97
2023-03-05T12:15:49.104Z,100711.22
2023-03-05T12:18:33.781Z,100707.78
2023-03-05T12:21:08.952Z,100711.25
2023-03-05T12:23:50.645Z,100699.97
2023-03-05T12:26:19.956Z,100700.81
2023-03-05T12:28:57.283Z,100700.81
2023-03-05T12:31:38.661Z,100696.50
2023-03-05T12:34:47.095Z,100683.47
2023-03-05T12:38:06.126Z,100686.13
2023-03-05T12:40:39.397Z,100680.94
2023-03-05T12:43:32.925Z,100686.19
2023-03-05T12:46:35.592Z,100680.13
2023-03-05T12:49:29.863Z,100674.03
2023-03-05T12:51:59.665Z,100668.84
2023-03-05T12:54:35.396Z,100665.38
2023-03-05T12:57:07.692Z,100663.66
2023-03-05T12:59:44.557Z,100663.69
2023-03-05T13:02:24.514Z,100662.88
2023-03-05T13:04:58.550Z,100657.69
2023-03-05T13:07:27.172Z,100649.91
2023-03-05T13:10:00.720Z,100655.13
2023-03-05T13:12:31.023Z,100651.66
2023-03-05T13:15:03.094Z,100642.94
2023-03-05T13:17:38.017Z,100648.97
2023-03-05T13:20:30.037Z,100639.44
2023-03-05T13:23:18.642Z,100638.56
2023-03-05T13:26:03.210Z,100625.53
2023-03-05T13:28:33.393Z,100624.63
2023-03-05T13:31:11.757Z,100619.47
2023-03-05T13:33:40.349Z,100623.00
2023-03-05T13:36:09.108Z,100621.25
2023-03-05T13:38:41.510Z,100629.06
2023-03-05T13:41:24.475Z,100609.06
2023-03-05T13:43:55.487Z,100609.09
2023-03-05T13:46:30.196Z,100612.59
2023-03-05T13:48:59.932Z,100607.47
2023-03-05T13:51:45.074Z,100611.88
2023-03-05T13:54:16.870Z,100604.03
2023-03-05T13:56:56.678Z,100600.56
2023-03-05T13:59:28.179Z,100595.41
2023-03-05T14:01:58.456Z,100593.72
2023-03-05T14:04:29.316Z,100586.78
2023-03-05T14:07:03.184Z,100580.75
2023-03-05T14:09:46.969Z,100590.31
2023-03-05T14:12:31.328Z,100577.31
2023-03-05T14:15:02.258Z,100572.13
2023-03-05T14:17:39.825Z,100571.31
2023-03-05T14:20:25.876Z,100568.81
2023-03-05T14:22:57.792Z,100558.38
2023-03-05T14:25:38.387Z,100552.34
2023-03-05T14:28:26.142Z,100547.16
2023-03-05T14:30:58.212Z,100543.72
2023-03-05T14:33:30.587Z,100541.16
2023-03-05T14:36:01.331Z,100539.44
2023-03-05T14:38:33.479Z,100530.78
2023-03-05T14:41:34.190Z,100540.38
2023-03-05T14:44:09.995Z,100529.97
2023-03-05T14:46:38.573Z,100518.69
2023-03-05T14:49:07.378Z,100516.06
2023-03-05T14:51:40.148Z,100509.13
2023-03-05T14:54:08.975Z,100497.84
2023-03-05T14:56:37.506Z,100489.19
2023-03-05T14:59:07.174Z,100485.66
2023-03-05T15:01:35.761Z,100488.22
2023-03-05T15:04:04.327Z,100493.38
2023-03-05T15:06:36.161Z,100487.25
2023-03-05T15:09:06.242Z,100495.00
2023-03-05T15:11:35.007Z,100478.47
2023-03-05T15:14:03.590Z,100477.53
2023-03-05T15:16:33.198Z,100467.06
2023-03-05T15:19:03.373Z,100476.59
2023-03-05T15:21:31.927Z,100471.38
2023-03-05T15:24:00.713Z,100476.59
2023-03-05T15:26:29.234Z,100472.25
2023-03-05T15:31:38.249Z,100460.22
2023-03-05T15:34:06.868Z,100458.53
2023-03-05T15:36:35.375Z,100450.75
2023-03-05T15:39:03.764Z,100441.25
2023-03-05T15:41:32.286Z,100433.44
2023-03-05T15:44:00.816Z,100440.38
2023-03-05T15:47:04.736Z,100432.63
2023-03-05T15:51:04.869Z,100430.13
2023-03-05T15:53:46.759Z,100423.25
2023-03-05T15:56:19.289Z,100424.13
2023-03-05T15:58:49.910Z,100415.50
2023-03-05T16:01:20.677Z,100412.88
2023-03-05T16:11:18.887Z,100403.41
2023-03-05T16:13:50.517Z,100402.56
2023-03-05T16:16:19.549Z,100397.38
2023-03-05T16:18:48.839Z,100391.28
2023-03-05T16:21:17.542Z,100389.59
2023-03-05T16:23:49.319Z,100387.84
2023-03-05T16:26:17.800Z,100387.00
2023-03-05T16:28:46.370Z,100382.66
2023-03-05T16:31:14.661Z,100393.06
2023-03-05T16:33:43.237Z,100382.69
2023-03-05T16:36:24.969Z,100384.44
2023-03-05T16:38:58.058Z,100380.97
2023-03-05T16:41:27.460Z,100386.19
2023-03-05T16:43:57.447Z,100380.97
2023-03-05T16:46:27.565Z,100381.88
2023-03-05T16:48:56.317Z,100381.00
2023-03-05T16:51:24.836Z,100384.50
2023-03-05T16:53:55.702Z,100381.03
2023-03-05T16:56:24.575Z,100381.06
2023-03-05T16:58:55.140Z,100380.22
2023-03-05T17:01:24.508Z,100380.22
2023-03-05T17:03:53.704Z,100375.03
2023-03-05T17:06:24.921Z,100371.56
2023-03-05T17:08:55.485Z,100373.31
2023-03-05T17:11:25.626Z,100377.66
2023-03-05T17:13:54.216Z,100375.09
2023-03-05T17:16:23.099Z,100378.59
2023-03-05T17:18:51.976Z,100379.44
2023-03-05T17:21:20.480Z,100375.13
2023-03-05T17:23:49.183Z,100374.22
2023-03-05T17:26:20.614Z,100372.53
2023-03-05T17:28:49.453Z,100365.59
2023-03-05T17:31:17.880Z,100361.25
2023-03-05T17:33:46.501Z,100370.78
2023-03-05T17:36:16.435Z,100368.16
2023-03-05T17:38:46.265Z,100373.38
2023-03-05T17:41:15.518Z,100370.81
2023-03-05T17:43:45.334Z,100358.66
2023-03-05T17:46:14.147Z,100369.06
2023-03-05T17:48:42.688Z,100367.34
2023-03-05T17:51:16.270Z,100365.63
2023-03-05T17:53:44.907Z,100363.88
2023-03-05T17:56:16.824Z,100348.31
2023-03-05T17:58:46.383Z,100358.72
2023-03-05T18:01:24.477Z,100354.44
2023-03-05T18:03:53.033Z,100347.53
2023-03-05T18:06:21.570Z,100347.56
2023-03-05T18:08:50.681Z,100356.22
2023-03-05T18:11:19.410Z,100356.25
2023-03-05T18:13:49.232Z,100351.94
2023-03-05T18:16:18.192Z,100349.31
2023-03-05T18:18:46.813Z,100351.03
2023-03-05T18:21:20.950Z,100350.19
2023-03-05T18:23:50.009Z,100348.47
2023-03-05T18:26:18.620Z,100349.34
2023-03-05T18:28:48.544Z,100345.88
2023-03-05T18:31:17.012Z,100339.84
2023-03-05T18:33:45.194Z,100346.78
2023-03-05T18:36:14.991Z,100339.84
2023-03-05T18:38:43.787Z,100339.84
2023-03-05T18:41:21.436Z,100334.69
2023-03-05T18:43:53.562Z,100329.47
2023-03-05T18:46:22.180Z,100332.97
2023-03-05T18:48:50.893Z,100329.47
2023-03-05T18:51:21.580Z,100323.44
2023-03-05T18:53:50.256Z,100322.56
2023-03-05T18:56:18.708Z,100320.84
2023-03-05T18:58:47.579Z,100322.56
2023-03-05T19:01:19.050Z,100320.84
2023-03-05T19:03:49.973Z,100322.59
2023-03-05T19:06:18.682Z,100324.31
2023-03-05T19:08:50.747Z,100312.19
2023-03-05T19:11:22.156Z,100311.34
2023-03-05T19:13:51.146Z,100312.19
2023-03-05T19:16:23.017Z,100313.94
2023-03-05T19:18:59.750Z,100305.28
2023-03-05T19:21:29.835Z,100306.13
2023-03-05T19:23:58.404Z,100306.16
2023-03-05T19:26:26.921Z,100309.63
2023-03-05T19:28:55.438Z,100298.34
2023-03-05T19:31:25.171Z,100301.84
2023-03-05T19:33:54.665Z,100300.09
2023-03-05T19:36:23.506Z,100300.09
2023-03-05T19:38:52.043Z,100291.44
2023-03-05T19:41:21.613Z,100298.34
2023-03-05T19:43:50.474Z,100294.91
2023-03-05T19:46:19.340Z,100290.56
2023-03-05T19:48:48.973Z,100284.50
2023-03-05T19:51:20.939Z,100294.91
2023-03-05T19:53:49.472Z,100293.16
2023-03-05T19:56:19.001Z,100288.84
2023-03-05T19:58:48.972Z,100294.00
2023-03-05T20:01:20.318Z,100287.09
2023-03-05T20:03:53.372Z,100290.56
2023-03-05T20:06:23.191Z,100279.31
2023-03-05T20:08:51.719Z,100289.72
2023-03-05T20:11:21.618Z,100284.50
2023-03-05T20:13:51.298Z,100275.00
2023-03-05T20:16:22.360Z,100271.53
2023-03-05T20:18:54.432Z,100274.16
2023-03-05T20:21:24.947Z,100273.28
2023-03-05T20:23:54.935Z,100269.84
2023-03-05T20:26:25.776Z,100267.25
2023-03-05T20:28:55.010Z,100268.97
2023-03-05T20:31:26.862Z,100256.88
2023-03-05T20:33:57.142Z,100259.47
2023-03-05T20:36:25.737Z,100262.06
2023-03-05T20:38:53.975Z,100265.56
2023-03-05T20:41:22.419Z,100258.66
2023-03-05T20:43:52.889Z,100253.44
2023-03-05T20:46:23.941Z,100256.03
2023-03-05T20:48:54.616Z,100251.69
2023-03-05T20:51:27.525Z,100251.72
2023-03-05T20:53:58.411Z,100256.06
2023-03-05T20:56:27.876Z,100248.25
2023-03-05T20:58:58.165Z,100250.00
2023-03-05T21:01:27.305Z,100243.94
2023-03-05T21:03:57.005Z,100243.97
2023-03-05T21:06:29.628Z,100240.53
2023-03-05T21:08:58.250Z,100243.13
2023-03-05T21:11:27.232Z,100236.22
2023-03-05T21:13:55.600Z,100243.16
2023-03-05T21:16:27.862Z,100238.81
2023-03-05T21:18:57.273Z,100237.94
2023-03-05T21:21:27.165Z,100232.75
2023-03-05T21:23:55.833Z,100231.03
2023-03-05T21:26:24.084Z,100229.31
2023-03-05T21:28:52.677Z,100224.13
2023-03-05T21:31:23.769Z,100222.38
2023-03-05T21:33:52.482Z,100219.78
2023-03-05T21:36:21.122Z,100214.63
2023-03-05T21:38:51.140Z,100208.56
2023-03-05T21:41:20.481Z,100206.81
2023-03-05T21:43:49.028Z,100203.38
2023-03-05T21:46:17.730Z,100199.06
2023-03-05T21:48:46.624Z,100198.22
2023-03-05T21:51:28.943Z,100196.47
2023-03-05T21:53:58.728Z,100189.56
2023-03-05T21:56:28.031Z,100187.00
2023-03-05T21:58:56.574Z,100184.41
2023-03-05T22:01:25.144Z,100178.34
2023-03-05T22:03:53.897Z,100174.88
2023-03-05T22:06:22.324Z,100169.72
2023-03-05T22:08:50.862Z,100161.94
2023-03-05T22:11:21.771Z,100151.53
2023-03-05T22:13:50.379Z,100150.66
2023-03-05T22:16:23.517Z,100147.22
2023-03-05T22:18:52.596Z,100146.38
2023-03-05T22:21:25.677Z,100152.44
2023-03-05T22:23:58.981Z,100139.47
2023-03-05T22:26:36.866Z,100137.75
2023-03-05T22:29:05.864Z,100131.69
2023-03-05T22:31:34.493Z,100128.25
2023-03-05T22:34:03.029Z,100133.44
2023-03-05T22:36:31.597Z,100130.84
2023-03-05T22:38:59.838Z,100123.94
2023-03-05T22:41:29.362Z,100121.34
2023-03-05T22:43:57.611Z,100122.19
2023-03-05T22:46:27.764Z,100115.25
2023-03-05T22:48:56.088Z,100107.47
2023-03-05T22:51:24.629Z,100104.88
2023-03-05T22:53:53.177Z,100103.16
2023-03-05T22:56:22.019Z,100097.97
2023-03-05T22:58:51.614Z,100100.56
2023-03-05T23:01:23.117Z,100101.44
2023-03-05T23:03:58.712Z,100091.06
2023-03-05T23:06:27.716Z,100089.31
2023-03-05T23:08:56.445Z,100085.84
2023-03-05T23:11:25.254Z,100075.50
2023-03-05T23:13:54.854Z,100073.72
2023-03-05T23:16:23.475Z,100073.72
2023-03-05T23:18:51.688Z,100075.47
2023-03-05T23:21:20.183Z,100074.63
2023-03-05T23:23:48.698Z,100069.44
2023-03-05T23:26:17.450Z,100069.47
2023-03-05T23:28:45.649Z,100070.38
2023-03-05T23:31:18.307Z,100068.66
2023-03-05T23:33:47.070Z,100066.94
2023-03-05T23:36:19.771Z,100061.75
2023-03-05T23:38:48.794Z,100054.84
2023-03-05T23:41:17.325Z,100061.75
2023-03-05T23:43:45.873Z,100060.03
2023-03-05T23:46:15.734Z,100063.47
2023-03-05T23:48:44.471Z,100056.59
2023-03-05T23:51:13.019Z,100053.13
2023-03-05T23:53:41.559Z,100061.81
2023-03-05T23:56:11.570Z,100057.50
2023-03-05T23:58:40.766Z,100054.94
